Cuaca Aktual Bandara Mali

Waktu Pengamatan : 2021-03-05 17:00:00 WITA


DAY-CLOUDY
Berawan
Suhu Udara
30 °C
Titik Embun
25 °C

Tekanan Udara 1008 hPa
Jarak Pandang >=10 km

Barat
Arah Angin
dari Barat
Kec. Angin
11.1 km/jam
METAR Terkini : METAR WATM 050900Z 26006KT 9999 SCT018 30/25 Q1008|NOSIG=